Time;durP1;ratioP1;P1;durP2;ratioP2;P2;SDS_P1;SDS_P2;PMS_P1;PMS_P2;Temp;Humidity;BMP_temperature;BMP_pressure;BME280_temperature;BME280_humidity;BME280_pressure;Samples;Min_cycle;Max_cycle;Signal;HPM_P1;HPM_P2
2022/11/27 00:00:44;;;;;;;18.37;11.90;;;8.20;84.00;;;;;;11030346;32;20057;-73
2022/11/27 00:06:46;;;;;;;15.15;11.98;;;8.20;84.40;;;;;;11030365;32;20026;-73
2022/11/27 00:12:51;;;;;;;16.37;11.75;;;8.20;84.40;;;;;;11016595;32;20014;-73
2022/11/27 00:18:54;;;;;;;15.02;10.00;;;8.10;84.70;;;;;;11030134;32;20053;-73
2022/11/27 00:24:56;;;;;;;13.60;9.50;;;8.00;85.10;;;;;;11030002;32;20057;-73
2022/11/27 00:30:59;;;;;;;12.20;9.43;;;7.90;85.30;;;;;;11016421;32;20018;-73
2022/11/27 00:37:38;;;;;;;14.77;11.38;;;7.90;85.60;;;;;;11025684;32;20057;-73
2022/11/27 00:43:41;;;;;;;12.50;9.23;;;8.00;85.70;;;;;;11029806;32;20346;-73
2022/11/27 00:49:45;;;;;;;17.02;12.85;;;8.00;85.70;;;;;;11029558;32;20121;-73
2022/11/27 00:55:47;;;;;;;14.13;10.73;;;8.00;85.50;;;;;;11027373;32;20030;-73
2022/11/27 01:01:50;;;;;;;12.85;9.65;;;7.90;85.20;;;;;;11023223;32;20030;-74
2022/11/27 01:07:52;;;;;;;19.80;13.13;;;7.90;85.10;;;;;;11022882;32;20022;-74
2022/11/27 01:14:00;;;;;;;12.75;9.43;;;7.90;85.10;;;;;;11022745;32;20066;-74
2022/11/27 01:20:03;;;;;;;18.50;14.20;;;7.90;85.10;;;;;;11022633;32;20362;-75
2022/11/27 01:26:08;;;;;;;17.20;10.57;;;7.90;85.30;;;;;;11020919;32;20049;-75
2022/11/27 01:32:10;;;;;;;11.70;9.15;;;7.80;85.10;;;;;;11022118;32;20018;-75
2022/11/27 01:38:13;;;;;;;13.48;9.52;;;7.80;85.20;;;;;;11021856;32;20018;-75
2022/11/27 01:44:25;;;;;;;19.77;11.60;;;7.80;85.30;;;;;;11021493;32;20050;-74
2022/11/27 01:50:36;;;;;;;15.35;10.00;;;7.70;85.30;;;;;;11006448;32;20350;-75
2022/11/27 01:56:40;;;;;;;15.00;11.07;;;7.80;85.30;;;;;;11021229;32;20425;-75
2022/11/27 02:02:43;;;;;;;10.93;8.82;;;7.70;85.10;;;;;;11020794;32;20021;-75
2022/11/27 02:08:46;;;;;;;11.05;8.13;;;7.50;85.00;;;;;;11020411;32;20023;-75
2022/11/27 02:15:39;;;;;;;11.38;8.32;;;7.50;84.90;;;;;;11020615;32;20045;-75
2022/11/27 02:21:48;;;;;;;11.88;9.57;;;7.50;84.80;;;;;;10829245;32;20389;-74
2022/11/27 02:28:02;;;;;;;13.27;10.30;;;7.40;84.80;;;;;;10828497;32;20051;-75
2022/11/27 02:34:33;;;;;;;9.80;7.85;;;7.50;84.80;;;;;;10828093;32;20081;-75
2022/11/27 02:40:41;;;;;;;10.38;8.35;;;7.50;84.70;;;;;;10718908;33;20055;-75
2022/11/27 02:46:45;;;;;;;9.68;7.22;;;7.40;84.60;;;;;;10714017;33;20036;-73
2022/11/27 02:52:50;;;;;;;9.93;8.07;;;7.40;84.50;;;;;;10717396;32;20050;-73
2022/11/27 02:58:55;;;;;;;15.35;8.57;;;7.40;84.70;;;;;;10827369;32;20024;-73
2022/11/27 03:05:03;;;;;;;11.73;8.65;;;7.30;85.10;;;;;;10828202;32;20312;-73
2022/11/27 03:11:11;;;;;;;9.38;6.72;;;7.30;85.40;;;;;;10827885;32;20031;-73
2022/11/27 03:17:25;;;;;;;10.02;7.62;;;7.30;85.40;;;;;;10988511;32;20041;-73
2022/11/27 03:23:27;;;;;;;11.70;7.97;;;7.30;85.60;;;;;;11017988;32;20034;-73
2022/11/27 03:29:42;;;;;;;9.38;6.82;;;7.30;85.70;;;;;;11018377;32;20018;-73
2022/11/27 03:35:44;;;;;;;11.63;7.37;;;7.30;85.70;;;;;;11014108;32;20023;-73
2022/11/27 03:41:52;;;;;;;10.77;7.07;;;7.20;85.70;;;;;;11018021;32;20338;-73
2022/11/27 03:48:17;;;;;;;12.18;8.70;;;7.20;85.60;;;;;;11017984;32;20372;-73
2022/11/27 03:54:35;;;;;;;10.13;6.93;;;7.10;85.70;;;;;;11017995;32;20416;-74
2022/11/27 04:00:42;;;;;;;9.73;6.15;;;7.20;85.60;;;;;;11017396;32;20057;-75
2022/11/27 04:06:44;;;;;;;10.25;6.90;;;7.20;85.30;;;;;;11017382;32;20058;-75
2022/11/27 04:12:46;;;;;;;7.47;5.62;;;7.10;85.50;;;;;;11017320;32;20387;-75
2022/11/27 04:18:48;;;;;;;9.57;6.90;;;7.10;85.50;;;;;;11013137;32;20041;-75
2022/11/27 04:24:51;;;;;;;11.25;6.85;;;7.10;85.60;;;;;;11017216;32;20038;-73
2022/11/27 04:30:53;;;;;;;6.30;4.68;;;7.00;85.60;;;;;;11018935;32;20018;-73
2022/11/27 04:36:55;;;;;;;9.30;5.90;;;7.00;85.30;;;;;;11024342;32;20092;-73
2022/11/27 04:42:57;;;;;;;5.75;4.57;;;7.00;85.30;;;;;;11024038;32;20045;-75
2022/11/27 04:48:59;;;;;;;7.30;5.28;;;6.90;85.20;;;;;;11023659;32;20030;-75
2022/11/27 04:55:01;;;;;;;7.62;5.07;;;6.90;85.10;;;;;;11023473;32;20019;-75
2022/11/27 05:01:03;;;;;;;10.43;5.87;;;6.90;85.10;;;;;;11023170;32;20030;-75
2022/11/27 05:07:06;;;;;;;6.43;4.53;;;6.80;85.10;;;;;;11022963;32;20443;-75
2022/11/27 05:13:07;;;;;;;7.25;4.53;;;6.80;85.00;;;;;;11021552;32;20049;-74
2022/11/27 05:19:10;;;;;;;6.72;5.12;;;6.80;85.00;;;;;;11022694;32;20045;-75
2022/11/27 05:25:13;;;;;;;6.87;4.75;;;6.70;85.00;;;;;;11022246;32;20023;-74
2022/11/27 05:31:15;;;;;;;8.50;5.97;;;6.70;84.90;;;;;;11022049;32;20054;-75
2022/11/27 05:37:17;;;;;;;5.68;4.10;;;6.70;84.80;;;;;;11017696;32;20019;-74
2022/11/27 05:43:19;;;;;;;5.87;3.92;;;6.60;84.80;;;;;;11004065;32;20386;-75
2022/11/27 05:49:21;;;;;;;6.55;4.62;;;6.60;84.80;;;;;;11021571;32;20045;-75
2022/11/27 05:55:23;;;;;;;6.87;4.65;;;6.50;84.70;;;;;;11021313;32;20044;-75
2022/11/27 06:01:25;;;;;;;4.87;3.17;;;6.60;85.10;;;;;;11020981;32;20390;-75
2022/11/27 06:07:29;;;;;;;4.70;3.03;;;6.50;85.10;;;;;;11020968;32;20326;-75
2022/11/27 06:13:31;;;;;;;6.60;3.85;;;6.50;85.00;;;;;;11020559;32;20303;-74
2022/11/27 06:19:33;;;;;;;5.85;3.90;;;6.40;85.00;;;;;;11020363;32;20017;-75
2022/11/27 06:25:35;;;;;;;10.15;3.97;;;6.40;84.90;;;;;;11020258;32;20018;-75
2022/11/27 06:31:38;;;;;;;6.78;4.43;;;6.40;85.00;;;;;;11019968;32;20382;-74
2022/11/27 06:37:40;;;;;;;4.95;3.42;;;6.50;85.30;;;;;;11019638;32;20022;-75
2022/11/27 06:43:43;;;;;;;5.05;2.70;;;6.50;85.20;;;;;;11019426;32;20287;-74
2022/11/27 06:49:45;;;;;;;5.13;3.13;;;6.50;85.10;;;;;;10584486;27;12208522;-73
2022/11/27 06:56:06;;;;;;;7.05;4.82;;;6.50;85.10;;;;;;10938687;32;20134;-73
2022/11/27 07:02:13;;;;;;;5.22;3.70;;;6.50;85.10;;;;;;10939945;32;20031;-73
2022/11/27 07:08:15;;;;;;;11.52;5.12;;;6.50;85.20;;;;;;10939542;32;20070;-73
2022/11/27 07:14:18;;;;;;;6.53;4.65;;;6.50;85.50;;;;;;10964565;32;20038;-73
2022/11/27 07:20:20;;;;;;;5.80;3.75;;;6.60;85.40;;;;;;10980572;32;20327;-73
2022/11/27 07:26:24;;;;;;;8.13;3.25;;;6.50;85.50;;;;;;10980447;32;20449;-73
2022/11/27 07:32:26;;;;;;;7.45;3.80;;;6.50;85.60;;;;;;10966837;32;20326;-73
2022/11/27 07:38:29;;;;;;;5.35;3.20;;;6.70;85.60;;;;;;10980098;32;20049;-73
2022/11/27 07:44:31;;;;;;;6.40;3.67;;;6.80;85.60;;;;;;10979472;32;20053;-74
2022/11/27 07:50:33;;;;;;;6.55;3.33;;;6.80;85.70;;;;;;10979510;32;20402;-74
2022/11/27 07:56:35;;;;;;;5.43;3.08;;;6.90;85.70;;;;;;10979645;32;20026;-73
2022/11/27 08:02:37;;;;;;;5.87;3.35;;;6.90;85.90;;;;;;10962857;32;20354;-73
2022/11/27 08:08:39;;;;;;;6.32;3.37;;;6.90;86.10;;;;;;10946914;32;20335;-73
2022/11/27 08:14:41;;;;;;;6.05;3.20;;;7.00;86.30;;;;;;10949298;32;20035;-73
2022/11/27 08:20:52;;;;;;;5.32;3.72;;;7.10;86.40;;;;;;10935867;32;20014;-73
2022/11/27 08:26:54;;;;;;;6.47;3.08;;;7.10;86.60;;;;;;10948849;32;20395;-73
2022/11/27 08:32:56;;;;;;;5.35;3.72;;;7.20;86.60;;;;;;10944295;32;20063;-73
2022/11/27 08:39:19;;;;;;;5.55;4.32;;;7.20;86.60;;;;;;10948141;32;20019;-73
2022/11/27 08:45:21;;;;;;;7.28;5.15;;;7.30;86.60;;;;;;10934278;32;20026;-74
2022/11/27 08:51:23;;;;;;;8.43;5.37;;;7.40;86.60;;;;;;10947516;32;20046;-75
2022/11/27 08:57:26;;;;;;;6.75;3.97;;;7.50;86.60;;;;;;10947512;32;20054;-75
2022/11/27 09:03:29;;;;;;;6.70;3.58;;;7.60;86.30;;;;;;10933756;32;20053;-74
2022/11/27 09:09:31;;;;;;;4.70;3.22;;;7.70;86.20;;;;;;10947369;32;20374;-75
2022/11/27 09:15:34;;;;;;;9.57;5.25;;;7.80;86.40;;;;;;10947084;32;20387;-75
2022/11/27 09:21:37;;;;;;;4.37;2.87;;;8.00;86.40;;;;;;10945759;32;20077;-75
2022/11/27 09:27:39;;;;;;;4.87;2.45;;;8.10;86.20;;;;;;10932953;32;20058;-75
2022/11/27 09:33:43;;;;;;;6.25;4.53;;;8.20;86.10;;;;;;10932955;32;20026;-75
2022/11/27 09:39:45;;;;;;;7.22;4.07;;;8.40;86.10;;;;;;10932743;32;20045;-75
2022/11/27 09:45:53;;;;;;;4.95;3.05;;;8.60;85.70;;;;;;10945837;32;20429;-75
2022/11/27 09:52:11;;;;;;;5.30;3.00;;;8.70;85.60;;;;;;10945816;32;20035;-75
2022/11/27 09:58:36;;;;;;;4.65;2.83;;;8.80;85.20;;;;;;10945995;32;20356;-74
2022/11/27 10:04:58;;;;;;;4.37;2.75;;;9.00;85.10;;;;;;10946479;32;20073;-73
2022/11/27 10:11:03;;;;;;;4.95;2.83;;;9.10;85.00;;;;;;10945467;32;20335;-73
2022/11/27 10:17:47;;;;;;;5.85;2.22;;;9.20;84.40;;;;;;10945278;32;20426;-73
2022/11/27 10:23:58;;;;;;;5.05;3.65;;;9.30;84.50;;;;;;10792644;33;20036;-73
2022/11/27 10:30:02;;;;;;;3.33;2.00;;;9.60;84.30;;;;;;10791415;33;20028;-73
2022/11/27 10:36:08;;;;;;;3.60;2.03;;;9.70;84.50;;;;;;10791164;33;20032;-73
2022/11/27 10:42:34;;;;;;;5.65;2.40;;;9.80;84.60;;;;;;10792036;33;20028;-73
2022/11/27 10:48:36;;;;;;;3.95;2.42;;;10.00;83.20;;;;;;10786515;33;20070;-73
2022/11/27 10:54:39;;;;;;;6.18;2.55;;;10.20;83.20;;;;;;10801368;32;20035;-75
2022/11/27 11:01:18;;;;;;;3.05;2.03;;;10.40;82.60;;;;;;10924900;32;20054;-75
2022/11/27 11:08:05;;;;;;;1.83;1.23;;;10.60;81.90;;;;;;10864559;32;20039;-75
2022/11/27 11:14:33;;;;;;;4.62;2.28;;;10.80;81.50;;;;;;10862764;32;20032;-75
2022/11/27 11:20:58;;;;;;;3.92;2.47;;;11.10;81.60;;;;;;10862501;32;20031;-75
2022/11/27 11:27:13;;;;;;;3.65;3.08;;;11.20;80.20;;;;;;10863755;32;20040;-74
2022/11/27 11:33:15;;;;;;;4.75;2.72;;;11.40;79.90;;;;;;10862392;32;20070;-75
2022/11/27 11:39:54;;;;;;;2.83;2.08;;;11.50;79.30;;;;;;10874720;32;20035;-75
2022/11/27 11:46:07;;;;;;;3.03;2.37;;;11.50;78.60;;;;;;10789977;33;20071;-75
2022/11/27 11:52:38;;;;;;;5.03;3.35;;;11.50;77.60;;;;;;10788791;33;20043;-75
2022/11/27 11:59:06;;;;;;;5.90;2.83;;;11.50;76.50;;;;;;10788778;33;20373;-75
2022/11/27 12:05:14;;;;;;;3.95;2.47;;;11.40;75.50;;;;;;10788638;33;20032;-75
2022/11/27 12:11:37;;;;;;;3.00;2.07;;;11.40;75.60;;;;;;10788739;33;20047;-74
2022/11/27 12:18:06;;;;;;;3.22;2.00;;;11.40;75.40;;;;;;10788568;33;20024;-75
2022/11/27 12:24:29;;;;;;;2.78;1.90;;;11.40;75.40;;;;;;10903740;32;20433;-75
2022/11/27 12:31:12;;;;;;;2.47;1.83;;;11.40;75.10;;;;;;10903638;32;20019;-75
2022/11/27 12:37:41;;;;;;;5.12;3.03;;;11.40;74.50;;;;;;10715476;33;20025;-74
2022/11/27 12:43:55;;;;;;;6.37;2.53;;;11.50;74.10;;;;;;10715250;33;20076;-74
2022/11/27 12:50:22;;;;;;;3.22;2.08;;;11.50;73.80;;;;;;10744107;32;20055;-74
2022/11/27 12:56:39;;;;;;;2.67;1.73;;;11.50;73.50;;;;;;10649894;33;20048;-74
2022/11/27 13:03:07;;;;;;;6.75;3.55;;;11.50;73.00;;;;;;10649203;33;20030;-74
2022/11/27 13:09:20;;;;;;;4.13;2.60;;;11.60;72.40;;;;;;10543853;33;20042;-74
2022/11/27 13:15:37;;;;;;;7.37;2.33;;;11.70;71.70;;;;;;10613161;33;20340;-74
2022/11/27 13:21:40;;;;;;;5.12;3.50;;;11.80;71.80;;;;;;10649865;33;20049;-73
2022/11/27 13:27:48;;;;;;;4.57;2.22;;;11.90;71.30;;;;;;10649655;33;20430;-73
2022/11/27 13:33:58;;;;;;;5.30;2.15;;;11.90;70.80;;;;;;10769935;33;20044;-73
2022/11/27 13:40:17;;;;;;;4.45;2.00;;;11.90;70.80;;;;;;10794026;33;20047;-73
2022/11/27 13:46:47;;;;;;;2.95;1.73;;;11.90;70.80;;;;;;10917798;32;20425;-73
2022/11/27 13:53:06;;;;;;;3.08;1.90;;;12.00;71.10;;;;;;10932274;32;20024;-73
2022/11/27 13:59:23;;;;;;;4.70;2.90;;;12.00;71.20;;;;;;10945633;32;20027;-73
2022/11/27 14:05:44;;;;;;;9.13;2.58;;;12.10;70.90;;;;;;10944894;32;20042;-73
2022/11/27 14:11:47;;;;;;;3.15;1.90;;;12.70;69.80;;;;;;10945287;32;20058;-73
2022/11/27 14:18:03;;;;;;;2.40;1.83;;;12.80;69.70;;;;;;10944993;32;20023;-73
2022/11/27 14:24:35;;;;;;;2.53;2.17;;;12.90;69.60;;;;;;10941053;32;20090;-73
2022/11/27 14:30:48;;;;;;;3.45;2.45;;;13.00;69.50;;;;;;10931444;32;20045;-73
2022/11/27 14:36:51;;;;;;;4.72;2.00;;;12.60;70.60;;;;;;10942709;32;20065;-73
2022/11/27 14:43:14;;;;;;;3.28;1.83;;;12.20;71.60;;;;;;10944063;32;20039;-73
2022/11/27 14:49:18;;;;;;;3.08;1.83;;;11.80;72.10;;;;;;10999076;27;20042;-73
2022/11/27 14:55:43;;;;;;;1.83;1.62;;;11.60;72.80;;;;;;11019257;32;20022;-73
2022/11/27 15:01:57;;;;;;;3.87;2.47;;;11.40;73.30;;;;;;11018859;32;20030;-73
2022/11/27 15:08:00;;;;;;;1.60;1.50;;;11.40;73.70;;;;;;11014511;32;20022;-73
2022/11/27 15:14:02;;;;;;;1.75;1.05;;;11.50;73.60;;;;;;11018361;32;20045;-73
2022/11/27 15:20:32;;;;;;;1.77;1.17;;;11.20;74.10;;;;;;11013317;32;20034;-73
2022/11/27 15:26:43;;;;;;;2.10;1.30;;;10.90;74.80;;;;;;11017290;32;20056;-73
2022/11/27 15:32:52;;;;;;;2.20;1.45;;;10.60;75.40;;;;;;11018320;32;20084;-73
2022/11/27 15:39:09;;;;;;;1.60;1.00;;;10.40;75.90;;;;;;11016308;32;20026;-73
2022/11/27 15:45:11;;;;;;;1.30;1.20;;;10.20;76.40;;;;;;11014932;32;20322;-73
2022/11/27 15:51:15;;;;;;;2.65;1.85;;;10.10;76.80;;;;;;11018070;32;20053;-73
2022/11/27 15:57:18;;;;;;;3.65;1.92;;;9.90;77.10;;;;;;11017762;32;20068;-74
2022/11/27 16:03:21;;;;;;;3.70;1.75;;;9.80;77.50;;;;;;11017227;32;20034;-74
2022/11/27 16:09:23;;;;;;;4.15;2.05;;;9.70;77.70;;;;;;11017473;32;20056;-74
2022/11/27 16:15:25;;;;;;;3.62;2.35;;;9.60;78.00;;;;;;11017400;32;20049;-74
2022/11/27 16:21:28;;;;;;;4.28;2.33;;;9.50;78.40;;;;;;11017293;32;20616;-75
2022/11/27 16:27:30;;;;;;;6.35;3.70;;;9.40;78.50;;;;;;11019461;32;20053;-74
2022/11/27 16:33:32;;;;;;;4.82;2.50;;;9.30;78.80;;;;;;11024478;32;20022;-74
2022/11/27 16:39:35;;;;;;;7.80;3.30;;;9.20;79.00;;;;;;11019837;32;20030;-74
2022/11/27 16:45:37;;;;;;;9.25;6.80;;;9.20;79.20;;;;;;11023750;32;20061;-73
2022/11/27 16:51:40;;;;;;;11.32;6.87;;;9.10;79.70;;;;;;11023809;32;20030;-73
2022/11/27 16:57:43;;;;;;;10.15;6.05;;;9.00;79.90;;;;;;11018911;32;20034;-73
2022/11/27 17:03:46;;;;;;;6.95;5.40;;;8.90;80.40;;;;;;11023388;32;20432;-73
2022/11/27 17:09:48;;;;;;;13.20;6.93;;;8.80;80.50;;;;;;11015754;32;20034;-73
2022/11/27 17:15:51;;;;;;;11.32;7.75;;;8.80;80.50;;;;;;10984965;32;20019;-73
2022/11/27 17:21:54;;;;;;;11.15;7.90;;;8.80;80.60;;;;;;10984750;32;20018;-73
2022/11/27 17:27:57;;;;;;;9.60;6.53;;;8.80;80.60;;;;;;10983746;32;20053;-73
2022/11/27 17:34:00;;;;;;;9.63;6.28;;;8.70;80.60;;;;;;11020699;32;20045;-73
2022/11/27 17:40:03;;;;;;;11.75;8.52;;;8.70;80.70;;;;;;11020706;32;20049;-73
2022/11/27 17:46:07;;;;;;;8.63;6.53;;;8.60;80.80;;;;;;11020770;32;20026;-73
2022/11/27 17:52:10;;;;;;;11.52;7.55;;;8.60;81.00;;;;;;11021896;32;20026;-73
2022/11/27 17:58:12;;;;;;;13.93;7.93;;;8.40;81.10;;;;;;11021619;32;20041;-73
2022/11/27 18:04:14;;;;;;;16.40;11.52;;;8.40;81.10;;;;;;11020397;32;20029;-73
2022/11/27 18:10:18;;;;;;;20.25;15.60;;;8.40;81.20;;;;;;11021798;32;20081;-73
2022/11/27 18:16:27;;;;;;;17.35;14.95;;;8.30;81.20;;;;;;11020653;32;20069;-73
2022/11/27 18:22:30;;;;;;;16.80;12.57;;;8.30;81.50;;;;;;11020413;32;20061;-73
2022/11/27 18:28:33;;;;;;;12.18;10.20;;;8.20;81.50;;;;;;11020283;32;20034;-74
2022/11/27 18:34:35;;;;;;;14.20;11.12;;;8.20;81.50;;;;;;11020054;32;20018;-74
2022/11/27 18:40:40;;;;;;;13.90;9.60;;;8.20;81.60;;;;;;11014876;32;20061;-74
2022/11/27 18:46:42;;;;;;;13.55;9.07;;;8.20;81.90;;;;;;11019412;32;20398;-74
2022/11/27 18:53:07;;;;;;;14.50;11.77;;;8.10;82.30;;;;;;11019244;32;20031;-74
2022/11/27 18:59:09;;;;;;;13.82;11.85;;;8.10;82.30;;;;;;11019215;32;20045;-74
2022/11/27 19:05:12;;;;;;;14.77;12.37;;;8.00;82.20;;;;;;11018903;32;20022;-74
2022/11/27 19:11:17;;;;;;;12.60;9.77;;;8.00;82.00;;;;;;11014572;32;20026;-75
2022/11/27 19:17:21;;;;;;;14.35;10.95;;;7.90;82.00;;;;;;11014315;32;20044;-74
2022/11/27 19:23:23;;;;;;;13.68;10.30;;;7.70;82.10;;;;;;11018262;32;20026;-74
2022/11/27 19:29:26;;;;;;;13.95;11.15;;;7.70;82.10;;;;;;11018160;32;20045;-74
2022/11/27 19:35:32;;;;;;;15.02;10.90;;;7.60;82.20;;;;;;11018014;32;20011;-74
2022/11/27 19:41:34;;;;;;;15.88;11.32;;;7.60;82.10;;;;;;11017955;32;20053;-74
2022/11/27 19:47:42;;;;;;;18.73;13.40;;;7.60;82.10;;;;;;11004283;32;20049;-75
2022/11/27 19:53:44;;;;;;;16.48;12.20;;;7.60;82.10;;;;;;11004103;32;20026;-74
2022/11/27 19:59:47;;;;;;;20.95;13.55;;;7.50;82.10;;;;;;11017659;32;20334;-74
2022/11/27 20:05:59;;;;;;;23.73;17.52;;;7.50;82.10;;;;;;11024502;32;20049;-74
2022/11/27 20:12:02;;;;;;;23.67;16.58;;;7.50;82.00;;;;;;11023410;32;20027;-74
2022/11/27 20:18:04;;;;;;;27.80;21.33;;;7.40;82.10;;;;;;11020864;32;20022;-74
2022/11/27 20:24:15;;;;;;;24.37;19.10;;;7.40;82.00;;;;;;11024650;32;20026;-74
2022/11/27 20:30:19;;;;;;;26.17;20.83;;;7.50;82.30;;;;;;11025857;32;20023;-75
2022/11/27 20:36:22;;;;;;;31.23;24.17;;;7.40;82.80;;;;;;11024149;32;20041;-75
2022/11/27 20:42:25;;;;;;;27.15;19.42;;;7.30;82.60;;;;;;11023929;32;20018;-75
2022/11/27 20:48:27;;;;;;;24.40;19.50;;;7.30;82.60;;;;;;11004812;32;20346;-75
2022/11/27 20:54:29;;;;;;;23.52;20.40;;;7.30;82.50;;;;;;10985678;32;20030;-75
2022/11/27 21:00:32;;;;;;;20.77;16.30;;;7.20;82.40;;;;;;10985522;32;20019;-75
2022/11/27 21:06:36;;;;;;;24.55;18.48;;;7.20;82.40;;;;;;10988589;32;20064;-75
2022/11/27 21:12:40;;;;;;;26.48;20.50;;;7.00;82.60;;;;;;11010387;32;20026;-75
2022/11/27 21:18:44;;;;;;;25.52;20.92;;;7.00;82.70;;;;;;11020693;32;20034;-75
2022/11/27 21:24:50;;;;;;;24.65;20.92;;;7.10;82.70;;;;;;11018808;32;20026;-74
2022/11/27 21:30:52;;;;;;;28.42;19.73;;;7.00;82.60;;;;;;11022364;32;20436;-74
2022/11/27 21:36:54;;;;;;;30.25;22.45;;;7.10;82.80;;;;;;11022099;32;20026;-74
2022/11/27 21:42:56;;;;;;;28.58;22.73;;;7.00;83.10;;;;;;11017587;32;20027;-75
2022/11/27 21:48:59;;;;;;;23.52;21.00;;;7.00;83.00;;;;;;11004935;32;20041;-75
2022/11/27 21:55:02;;;;;;;21.95;18.60;;;7.00;83.10;;;;;;11017237;32;20048;-75
2022/11/27 22:01:06;;;;;;;26.48;21.73;;;7.00;83.50;;;;;;11021424;32;20018;-75
2022/11/27 22:07:08;;;;;;;25.88;23.05;;;6.90;83.70;;;;;;11003320;32;20022;-75
2022/11/27 22:13:13;;;;;;;26.70;21.55;;;6.90;83.70;;;;;;11020958;32;20060;-74
2022/11/27 22:19:17;;;;;;;28.15;22.10;;;6.90;83.70;;;;;;11020543;32;20402;-74
2022/11/27 22:25:19;;;;;;;26.37;21.00;;;6.90;83.60;;;;;;11019977;32;20022;-74
2022/11/27 22:31:24;;;;;;;25.98;22.45;;;6.90;83.40;;;;;;11020185;32;20049;-74
2022/11/27 22:37:26;;;;;;;30.55;23.48;;;6.80;83.50;;;;;;11019889;32;20022;-73
2022/11/27 22:43:29;;;;;;;27.98;22.70;;;6.80;83.60;;;;;;11019956;32;20064;-75
2022/11/27 22:49:31;;;;;;;32.72;26.73;;;6.90;83.70;;;;;;11021881;27;20436;-72
2022/11/27 22:55:34;;;;;;;32.45;26.25;;;6.80;83.90;;;;;;11005970;32;20383;-73
2022/11/27 23:01:36;;;;;;;28.42;23.38;;;6.80;83.90;;;;;;11019362;32;20027;-73
2022/11/27 23:07:38;;;;;;;26.48;23.55;;;6.70;84.10;;;;;;11005474;32;20014;-73
2022/11/27 23:13:41;;;;;;;28.75;22.10;;;6.70;84.30;;;;;;11018935;32;20053;-73
2022/11/27 23:19:43;;;;;;;20.62;16.60;;;6.70;84.30;;;;;;11018820;32;20018;-73
2022/11/27 23:25:45;;;;;;;23.33;16.25;;;6.70;84.30;;;;;;11018711;32;20030;-73
2022/11/27 23:31:47;;;;;;;22.90;20.40;;;6.70;84.50;;;;;;11018541;32;20022;-73
2022/11/27 23:37:49;;;;;;;24.27;17.00;;;6.70;84.70;;;;;;11017838;32;20361;-74
2022/11/27 23:43:53;;;;;;;21.40;15.23;;;6.70;84.80;;;;;;11014026;32;20034;-72
2022/11/27 23:49:54;;;;;;;18.80;15.32;;;6.50;84.80;;;;;;11018015;32;20022;-73
2022/11/27 23:56:01;;;;;;;26.95;18.95;;;6.40;85.00;;;;;;11018066;32;20044;-73
